AXM6021 WMKA-WMKK
Flight info
| Callsign | AXM6021 |
|---|---|
| Flight time | 0h 46m |
| Altitude | 27000 |
| Route | GUTEB1B GUTEB Y502 RINBA Y507 KAKAK KAKAK1H |
| Aircraft | A320/M-SDE3FGHIRWY/LB1 |
Departure
| Time | 2026-05-05 16:22 |
|---|---|
| Airport | Sultan Abdul Halim Airport (WMKA) |
Arrival
| Time | 2026-05-05 17:08 |
|---|---|
| Airport | Kuala Lumpur International Airport (WMKK) |
| Time | Latitude | Longitude | Altitude | Speed | Heading |
|---|---|---|---|---|---|
| 2026-05-05 16:05 | 6.19148 | 100.39644 | 23 ft | 0 kts | 313° |
| 2026-05-05 16:13 | 6.19144 | 100.39648 | 23 ft | 4 kts | 312° |
| 2026-05-05 16:14 | 6.19106 | 100.39684 | 23 ft | 2 kts | 321° |
| 2026-05-05 16:14 | 6.19101 | 100.39688 | 23 ft | 0 kts | 321° |
| 2026-05-05 16:17 | 6.19118 | 100.39697 | 23 ft | 7 kts | 63° |
| 2026-05-05 16:17 | 6.19101 | 100.39779 | 24 ft | 14 kts | 126° |
| 2026-05-05 16:18 | 6.19035 | 100.39860 | 26 ft | 12 kts | 106° |
| 2026-05-05 16:18 | 6.19113 | 100.39963 | 29 ft | 26 kts | 44° |
| 2026-05-05 16:18 | 6.19455 | 100.40278 | 24 ft | 34 kts | 42° |
| 2026-05-05 16:19 | 6.19622 | 100.40430 | 24 ft | 31 kts | 42° |
| 2026-05-05 16:19 | 6.19772 | 100.40567 | 28 ft | 20 kts | 42° |
| 2026-05-05 16:19 | 6.19891 | 100.40660 | 29 ft | 9 kts | 142° |
| 2026-05-05 16:20 | 6.19835 | 100.40625 | 28 ft | 0 kts | 223° |
| 2026-05-05 16:20 | 6.19641 | 100.40446 | 28 ft | 82 kts | 222° |
| 2026-05-05 16:21 | 6.18226 | 100.39138 | 581 ft | 161 kts | 223° |
| 2026-05-05 16:22 | 6.15522 | 100.36674 | 2460 ft | 208 kts | 222° |
| 2026-05-05 16:22 | 6.12987 | 100.34689 | 3534 ft | 258 kts | 199° |
| 2026-05-05 16:23 | 6.09400 | 100.35253 | 5316 ft | 275 kts | 157° |
| 2026-05-05 16:23 | 6.07594 | 100.35914 | 6395 ft | 278 kts | 160° |
| 2026-05-05 16:23 | 6.03876 | 100.37074 | 8383 ft | 286 kts | 162° |
| 2026-05-05 16:24 | 6.01962 | 100.37665 | 9325 ft | 290 kts | 161° |
| 2026-05-05 16:24 | 6.00025 | 100.38276 | 10208 ft | 295 kts | 161° |
| 2026-05-05 16:24 | 5.95835 | 100.39641 | 11150 ft | 334 kts | 160° |
| 2026-05-05 16:25 | 5.93609 | 100.40381 | 11927 ft | 340 kts | 160° |
| 2026-05-05 16:25 | 5.89065 | 100.41901 | 13539 ft | 348 kts | 159° |
| 2026-05-05 16:25 | 5.86784 | 100.42664 | 14298 ft | 352 kts | 159° |
| 2026-05-05 16:26 | 5.82078 | 100.44231 | 15765 ft | 360 kts | 160° |
| 2026-05-05 16:26 | 5.77269 | 100.45827 | 17181 ft | 368 kts | 160° |
| 2026-05-05 16:27 | 5.74823 | 100.46639 | 17875 ft | 372 kts | 160° |
| 2026-05-05 16:27 | 5.72351 | 100.47460 | 18538 ft | 376 kts | 160° |
| 2026-05-05 16:27 | 5.69887 | 100.48277 | 19176 ft | 380 kts | 160° |
| 2026-05-05 16:27 | 5.67365 | 100.49114 | 19793 ft | 384 kts | 160° |
| 2026-05-05 16:28 | 5.64817 | 100.49959 | 20396 ft | 387 kts | 160° |
| 2026-05-05 16:28 | 5.62246 | 100.50811 | 20974 ft | 391 kts | 160° |
| 2026-05-05 16:28 | 5.59652 | 100.51672 | 21533 ft | 394 kts | 160° |
| 2026-05-05 16:28 | 5.57039 | 100.52543 | 22061 ft | 397 kts | 160° |
| 2026-05-05 16:29 | 5.54403 | 100.53420 | 22572 ft | 401 kts | 160° |
| 2026-05-05 16:29 | 5.51750 | 100.54303 | 23072 ft | 404 kts | 160° |
| 2026-05-05 16:29 | 5.49070 | 100.55195 | 23561 ft | 407 kts | 160° |
| 2026-05-05 16:29 | 5.46404 | 100.56079 | 24032 ft | 410 kts | 160° |
| 2026-05-05 16:30 | 5.43682 | 100.56980 | 24496 ft | 413 kts | 160° |
| 2026-05-05 16:30 | 5.40942 | 100.57891 | 24945 ft | 416 kts | 160° |
| 2026-05-05 16:30 | 5.38182 | 100.58811 | 25379 ft | 419 kts | 160° |
| 2026-05-05 16:30 | 5.35402 | 100.59737 | 25831 ft | 422 kts | 160° |
| 2026-05-05 16:31 | 5.32606 | 100.60667 | 26240 ft | 425 kts | 161° |
| 2026-05-05 16:31 | 5.29790 | 100.61598 | 26647 ft | 428 kts | 161° |
| 2026-05-05 16:31 | 5.26953 | 100.62536 | 26942 ft | 430 kts | 161° |
| 2026-05-05 16:31 | 5.24117 | 100.63473 | 27026 ft | 424 kts | 161° |
| 2026-05-05 16:32 | 5.21360 | 100.64384 | 27039 ft | 413 kts | 161° |
| 2026-05-05 16:32 | 5.18688 | 100.65267 | 27038 ft | 409 kts | 161° |
| 2026-05-05 16:32 | 5.15990 | 100.66162 | 27018 ft | 408 kts | 161° |
| 2026-05-05 16:32 | 5.13301 | 100.67055 | 27011 ft | 407 kts | 161° |
| 2026-05-05 16:33 | 5.10609 | 100.67949 | 27018 ft | 407 kts | 161° |
| 2026-05-05 16:33 | 5.07923 | 100.68840 | 27020 ft | 407 kts | 161° |
| 2026-05-05 16:33 | 5.05234 | 100.69733 | 27020 ft | 407 kts | 161° |
| 2026-05-05 16:33 | 5.02545 | 100.70626 | 27019 ft | 407 kts | 161° |
| 2026-05-05 16:34 | 4.99856 | 100.71520 | 27019 ft | 407 kts | 161° |
| 2026-05-05 16:34 | 4.97204 | 100.72401 | 27017 ft | 407 kts | 161° |
| 2026-05-05 16:34 | 4.94517 | 100.73293 | 27016 ft | 407 kts | 161° |
| 2026-05-05 16:34 | 4.91830 | 100.74183 | 27015 ft | 406 kts | 161° |
| 2026-05-05 16:35 | 4.89146 | 100.75071 | 27014 ft | 406 kts | 160° |
| 2026-05-05 16:35 | 4.86464 | 100.75957 | 27014 ft | 406 kts | 161° |
| 2026-05-05 16:35 | 4.83778 | 100.76845 | 27013 ft | 406 kts | 161° |
| 2026-05-05 16:35 | 4.81099 | 100.77732 | 27011 ft | 406 kts | 160° |
| 2026-05-05 16:36 | 4.78415 | 100.78622 | 27007 ft | 406 kts | 160° |
| 2026-05-05 16:36 | 4.75773 | 100.79498 | 27007 ft | 406 kts | 160° |
| 2026-05-05 16:36 | 4.73094 | 100.80386 | 27006 ft | 405 kts | 160° |
| 2026-05-05 16:36 | 4.70423 | 100.81272 | 27006 ft | 405 kts | 160° |
| 2026-05-05 16:37 | 4.67747 | 100.82161 | 27011 ft | 405 kts | 160° |
| 2026-05-05 16:37 | 4.65071 | 100.83048 | 27011 ft | 405 kts | 161° |
| 2026-05-05 16:37 | 4.62393 | 100.83933 | 27011 ft | 405 kts | 161° |
| 2026-05-05 16:37 | 4.59715 | 100.84818 | 27011 ft | 405 kts | 161° |
| 2026-05-05 16:38 | 4.57073 | 100.85689 | 27011 ft | 405 kts | 161° |
| 2026-05-05 16:38 | 4.54395 | 100.86575 | 27007 ft | 405 kts | 160° |
| 2026-05-05 16:38 | 4.51718 | 100.87463 | 27007 ft | 405 kts | 160° |
| 2026-05-05 16:38 | 4.49041 | 100.88351 | 27011 ft | 405 kts | 160° |
| 2026-05-05 16:39 | 4.46369 | 100.89252 | 27010 ft | 405 kts | 158° |
| 2026-05-05 16:39 | 4.43810 | 100.90417 | 27011 ft | 404 kts | 153° |
| 2026-05-05 16:39 | 4.41285 | 100.91651 | 27007 ft | 404 kts | 153° |
| 2026-05-05 16:39 | 4.38756 | 100.92881 | 27006 ft | 404 kts | 153° |
| 2026-05-05 16:40 | 4.36231 | 100.94106 | 27003 ft | 404 kts | 153° |
| 2026-05-05 16:40 | 4.33700 | 100.95335 | 27003 ft | 404 kts | 153° |
| 2026-05-05 16:40 | 4.31204 | 100.96552 | 27003 ft | 404 kts | 153° |
| 2026-05-05 16:40 | 4.28674 | 100.97786 | 27002 ft | 404 kts | 153° |
| 2026-05-05 16:41 | 4.26143 | 100.99020 | 27003 ft | 404 kts | 153° |
| 2026-05-05 16:41 | 4.23612 | 101.00251 | 27002 ft | 404 kts | 153° |
| 2026-05-05 16:41 | 4.21080 | 101.01483 | 27002 ft | 405 kts | 153° |
| 2026-05-05 16:41 | 4.18547 | 101.02713 | 27003 ft | 404 kts | 153° |
| 2026-05-05 16:42 | 4.16016 | 101.03946 | 27003 ft | 404 kts | 153° |
| 2026-05-05 16:42 | 4.13488 | 101.05182 | 27003 ft | 405 kts | 153° |
| 2026-05-05 16:42 | 4.10992 | 101.06403 | 27002 ft | 405 kts | 153° |
| 2026-05-05 16:42 | 4.08462 | 101.07636 | 27004 ft | 405 kts | 153° |
| 2026-05-05 16:43 | 4.05929 | 101.08868 | 27005 ft | 405 kts | 153° |
| 2026-05-05 16:43 | 4.03397 | 101.10099 | 27001 ft | 405 kts | 153° |
| 2026-05-05 16:43 | 4.00863 | 101.11330 | 26999 ft | 405 kts | 153° |
| 2026-05-05 16:43 | 3.98326 | 101.12564 | 26996 ft | 405 kts | 153° |
| 2026-05-05 16:44 | 3.95791 | 101.13795 | 26996 ft | 405 kts | 153° |
| 2026-05-05 16:44 | 3.93257 | 101.15027 | 26997 ft | 405 kts | 153° |
| 2026-05-05 16:44 | 3.90728 | 101.16253 | 26995 ft | 405 kts | 153° |
| 2026-05-05 16:44 | 3.88229 | 101.17469 | 26994 ft | 405 kts | 153° |
| 2026-05-05 16:45 | 3.85700 | 101.18705 | 26995 ft | 404 kts | 153° |
| 2026-05-05 16:45 | 3.83169 | 101.19937 | 26994 ft | 405 kts | 153° |
| 2026-05-05 16:45 | 3.80636 | 101.21166 | 26995 ft | 405 kts | 153° |
| 2026-05-05 16:45 | 3.78045 | 101.22275 | 26992 ft | 406 kts | 161° |
| 2026-05-05 16:46 | 3.75289 | 101.22904 | 27004 ft | 413 kts | 172° |
| 2026-05-05 16:46 | 3.72369 | 101.23051 | 27014 ft | 427 kts | 178° |
| 2026-05-05 16:46 | 3.69376 | 101.23092 | 27011 ft | 431 kts | 178° |
| 2026-05-05 16:46 | 3.66408 | 101.23130 | 27011 ft | 433 kts | 178° |
| 2026-05-05 16:47 | 3.63395 | 101.23170 | 27011 ft | 433 kts | 178° |
| 2026-05-05 16:47 | 3.60388 | 101.23214 | 26549 ft | 431 kts | 178° |
| 2026-05-05 16:47 | 3.57401 | 101.23259 | 25852 ft | 428 kts | 178° |
| 2026-05-05 16:47 | 3.54467 | 101.23467 | 25430 ft | 416 kts | 167° |
| 2026-05-05 16:48 | 3.51736 | 101.24232 | 25179 ft | 401 kts | 161° |
| 2026-05-05 16:48 | 3.49097 | 101.25069 | 24928 ft | 395 kts | 161° |
| 2026-05-05 16:48 | 3.46488 | 101.25908 | 24678 ft | 393 kts | 160° |
| 2026-05-05 16:48 | 3.43906 | 101.26747 | 24401 ft | 388 kts | 160° |
| 2026-05-05 16:49 | 3.41390 | 101.27567 | 23927 ft | 383 kts | 160° |
| 2026-05-05 16:49 | 3.38867 | 101.28390 | 23410 ft | 379 kts | 160° |
| 2026-05-05 16:49 | 3.36367 | 101.29204 | 22891 ft | 376 kts | 160° |
| 2026-05-05 16:49 | 3.33886 | 101.30012 | 22379 ft | 374 kts | 160° |
| 2026-05-05 16:50 | 3.31420 | 101.30809 | 21853 ft | 371 kts | 160° |
| 2026-05-05 16:50 | 3.28967 | 101.31599 | 21356 ft | 369 kts | 160° |
| 2026-05-05 16:50 | 3.26528 | 101.32386 | 20833 ft | 367 kts | 160° |
| 2026-05-05 16:50 | 3.24135 | 101.33158 | 20321 ft | 365 kts | 160° |
| 2026-05-05 16:51 | 3.21722 | 101.33936 | 19813 ft | 363 kts | 160° |
| 2026-05-05 16:51 | 3.19322 | 101.34713 | 19300 ft | 362 kts | 160° |
| 2026-05-05 16:51 | 3.16935 | 101.35488 | 18796 ft | 360 kts | 160° |
| 2026-05-05 16:51 | 3.14565 | 101.36257 | 18296 ft | 358 kts | 160° |
| 2026-05-05 16:52 | 3.12203 | 101.37022 | 17803 ft | 356 kts | 160° |
| 2026-05-05 16:52 | 3.09857 | 101.37783 | 17313 ft | 353 kts | 160° |
| 2026-05-05 16:52 | 3.07525 | 101.38542 | 16830 ft | 352 kts | 160° |
| 2026-05-05 16:52 | 3.05204 | 101.39297 | 16352 ft | 350 kts | 160° |
| 2026-05-05 16:53 | 3.02926 | 101.40035 | 15882 ft | 348 kts | 160° |
| 2026-05-05 16:53 | 3.00626 | 101.40779 | 15412 ft | 346 kts | 160° |
| 2026-05-05 16:53 | 2.98339 | 101.41513 | 14943 ft | 344 kts | 160° |
| 2026-05-05 16:53 | 2.96062 | 101.42243 | 14472 ft | 343 kts | 160° |
| 2026-05-05 16:54 | 2.93799 | 101.42971 | 14009 ft | 341 kts | 160° |
| 2026-05-05 16:54 | 2.91546 | 101.43701 | 13531 ft | 340 kts | 160° |
| 2026-05-05 16:54 | 2.89301 | 101.44429 | 13056 ft | 338 kts | 160° |
| 2026-05-05 16:54 | 2.87097 | 101.45142 | 12583 ft | 337 kts | 161° |
| 2026-05-05 16:55 | 2.84873 | 101.45862 | 12108 ft | 334 kts | 161° |
| 2026-05-05 16:55 | 2.82667 | 101.46578 | 11620 ft | 333 kts | 161° |
| 2026-05-05 16:55 | 2.80476 | 101.47288 | 11145 ft | 330 kts | 161° |
| 2026-05-05 16:55 | 2.78291 | 101.47995 | 10647 ft | 329 kts | 161° |
| 2026-05-05 16:56 | 2.76122 | 101.48697 | 10178 ft | 327 kts | 161° |
| 2026-05-05 16:56 | 2.73996 | 101.49382 | 10022 ft | 314 kts | 161° |
| 2026-05-05 16:56 | 2.71953 | 101.50041 | 9849 ft | 304 kts | 161° |
| 2026-05-05 16:56 | 2.69984 | 101.50679 | 9490 ft | 300 kts | 161° |
| 2026-05-05 16:57 | 2.67999 | 101.51322 | 9073 ft | 299 kts | 162° |
| 2026-05-05 16:57 | 2.66084 | 101.51968 | 8865 ft | 282 kts | 155° |
| 2026-05-05 16:57 | 2.64491 | 101.53029 | 8349 ft | 273 kts | 133° |
| 2026-05-05 16:57 | 2.63452 | 101.54569 | 7885 ft | 263 kts | 111° |
| 2026-05-05 16:58 | 2.63045 | 101.56336 | 7746 ft | 263 kts | 91° |
| 2026-05-05 16:58 | 2.63073 | 101.58167 | 7588 ft | 265 kts | 88° |
| 2026-05-05 16:58 | 2.63122 | 101.60000 | 7422 ft | 263 kts | 88° |
| 2026-05-05 16:58 | 2.63166 | 101.61825 | 7254 ft | 262 kts | 90° |
| 2026-05-05 16:59 | 2.62883 | 101.63597 | 7093 ft | 262 kts | 108° |
| 2026-05-05 16:59 | 2.62060 | 101.65214 | 6843 ft | 264 kts | 126° |
| 2026-05-05 16:59 | 2.60761 | 101.66516 | 6394 ft | 264 kts | 144° |
| 2026-05-05 16:59 | 2.59226 | 101.67530 | 5954 ft | 264 kts | 146° |
| 2026-05-05 17:00 | 2.57695 | 101.68539 | 5498 ft | 265 kts | 146° |
| 2026-05-05 17:00 | 2.56155 | 101.69557 | 5013 ft | 264 kts | 146° |
| 2026-05-05 17:00 | 2.54653 | 101.70547 | 4529 ft | 253 kts | 146° |
| 2026-05-05 17:00 | 2.53210 | 101.71505 | 4056 ft | 245 kts | 146° |
| 2026-05-05 17:01 | 2.51818 | 101.72440 | 3566 ft | 238 kts | 145° |
| 2026-05-05 17:01 | 2.50460 | 101.73355 | 3099 ft | 232 kts | 145° |
| 2026-05-05 17:01 | 2.49166 | 101.74259 | 2637 ft | 227 kts | 137° |
| 2026-05-05 17:01 | 2.48276 | 101.75464 | 2503 ft | 206 kts | 111° |
| 2026-05-05 17:02 | 2.47995 | 101.76829 | 2511 ft | 201 kts | 88° |
| 2026-05-05 17:02 | 2.48302 | 101.78185 | 2511 ft | 201 kts | 63° |
| 2026-05-05 17:02 | 2.49151 | 101.79285 | 2516 ft | 202 kts | 39° |
| 2026-05-05 17:02 | 2.50338 | 101.80043 | 2512 ft | 202 kts | 31° |
| 2026-05-05 17:03 | 2.51543 | 101.80767 | 2510 ft | 203 kts | 31° |
| 2026-05-05 17:03 | 2.52849 | 101.81256 | 2514 ft | 204 kts | 2° |
| 2026-05-05 17:03 | 2.54202 | 101.80913 | 2512 ft | 205 kts | 329° |
| 2026-05-05 17:03 | 2.55374 | 101.80134 | 2515 ft | 206 kts | 326° |
| 2026-05-05 17:04 | 2.56562 | 101.79325 | 2511 ft | 206 kts | 327° |
| 2026-05-05 17:04 | 2.57749 | 101.78525 | 2508 ft | 205 kts | 327° |
| 2026-05-05 17:04 | 2.58936 | 101.77730 | 2511 ft | 206 kts | 327° |
| 2026-05-05 17:04 | 2.60118 | 101.76938 | 2473 ft | 201 kts | 327° |
| 2026-05-05 17:05 | 2.61226 | 101.76195 | 2301 ft | 183 kts | 327° |
| 2026-05-05 17:05 | 2.62247 | 101.75510 | 2072 ft | 170 kts | 327° |
| 2026-05-05 17:05 | 2.63181 | 101.74883 | 1846 ft | 158 kts | 326° |
| 2026-05-05 17:05 | 2.64067 | 101.74290 | 1643 ft | 149 kts | 327° |
| 2026-05-05 17:06 | 2.64910 | 101.73725 | 1450 ft | 143 kts | 326° |
| 2026-05-05 17:06 | 2.65729 | 101.73176 | 1263 ft | 141 kts | 326° |
| 2026-05-05 17:06 | 2.66536 | 101.72633 | 1081 ft | 140 kts | 326° |
| 2026-05-05 17:06 | 2.67345 | 101.72092 | 895 ft | 140 kts | 326° |
| 2026-05-05 17:07 | 2.68150 | 101.71553 | 714 ft | 139 kts | 326° |
| 2026-05-05 17:07 | 2.68952 | 101.71017 | 526 ft | 139 kts | 326° |
| 2026-05-05 17:07 | 2.69751 | 101.70481 | 329 ft | 138 kts | 326° |
| 2026-05-05 17:07 | 2.70545 | 101.69950 | 158 ft | 137 kts | 327° |
| 2026-05-05 17:08 | 2.71327 | 101.69430 | 50 ft | 134 kts | 326° |
| 2026-05-05 17:08 | 2.72010 | 101.68968 | 39 ft | 96 kts | 326° |
| 2026-05-05 17:08 | 2.72350 | 101.68737 | 35 ft | 33 kts | 326° |
| 2026-05-05 17:08 | 2.72543 | 101.68644 | 38 ft | 25 kts | 347° |
| 2026-05-05 17:09 | 2.72724 | 101.68616 | 38 ft | 27 kts | 354° |
| 2026-05-05 17:09 | 2.72909 | 101.68570 | 39 ft | 28 kts | 328° |
| 2026-05-05 17:09 | 2.73076 | 101.68458 | 39 ft | 30 kts | 326° |
| 2026-05-05 17:09 | 2.73203 | 101.68372 | 37 ft | 18 kts | 325° |
| 2026-05-05 17:10 | 2.73291 | 101.68370 | 39 ft | 18 kts | 46° |
| 2026-05-05 17:10 | 2.73375 | 101.68495 | 42 ft | 25 kts | 56° |
| 2026-05-05 17:10 | 2.73475 | 101.68646 | 42 ft | 27 kts | 56° |
| 2026-05-05 17:10 | 2.73587 | 101.68809 | 41 ft | 29 kts | 56° |
| 2026-05-05 17:11 | 2.73705 | 101.68983 | 41 ft | 31 kts | 56° |
| 2026-05-05 17:11 | 2.73829 | 101.69168 | 42 ft | 33 kts | 56° |
| 2026-05-05 17:11 | 2.73937 | 101.69329 | 42 ft | 24 kts | 54° |
| 2026-05-05 17:11 | 2.74037 | 101.69476 | 41 ft | 26 kts | 56° |
| 2026-05-05 17:12 | 2.74100 | 101.69565 | 51 ft | 12 kts | 46° |
| 2026-05-05 17:12 | 2.74189 | 101.69555 | 50 ft | 18 kts | 327° |
| 2026-05-05 17:12 | 2.74304 | 101.69478 | 50 ft | 22 kts | 326° |
| 2026-05-05 17:12 | 2.74402 | 101.69412 | 48 ft | 19 kts | 324° |
| 2026-05-05 17:13 | 2.74521 | 101.69330 | 45 ft | 23 kts | 322° |
| 2026-05-05 17:13 | 2.74642 | 101.69250 | 40 ft | 10 kts | 329° |
| 2026-05-05 17:13 | 2.74707 | 101.69206 | 41 ft | 9 kts | 322° |
| 2026-05-05 17:13 | 2.74693 | 101.69151 | 40 ft | 10 kts | 236° |
| 2026-05-05 17:14 | 2.74648 | 101.69083 | 41 ft | 13 kts | 236° |
| 2026-05-05 17:14 | 2.74592 | 101.69000 | 42 ft | 16 kts | 236° |
| 2026-05-05 17:14 | 2.74546 | 101.68940 | 42 ft | 7 kts | 210° |
| 2026-05-05 17:14 | 2.74513 | 101.68952 | 42 ft | 2 kts | 144° |
| 2026-05-05 17:15 | 2.74506 | 101.68956 | 42 ft | 0 kts | 146° |